sensor_id;sensor_type;location;lat;lon;timestamp;temperature;humidity
56162;DHT22;42045;52.986;6.014;2023-07-16T00:00:29;15.40;99.90
56162;DHT22;42045;52.986;6.014;2023-07-16T00:02:55;15.40;99.90
56162;DHT22;42045;52.986;6.014;2023-07-16T00:05:21;15.40;99.90
56162;DHT22;42045;52.986;6.014;2023-07-16T00:07:47;15.40;99.90
56162;DHT22;42045;52.986;6.014;2023-07-16T00:10:13;15.40;99.90
56162;DHT22;42045;52.986;6.014;2023-07-16T00:12:38;15.40;99.90
56162;DHT22;42045;52.986;6.014;2023-07-16T00:15:04;15.40;99.90
56162;DHT22;42045;52.986;6.014;2023-07-16T00:17:32;15.50;99.90
56162;DHT22;42045;52.986;6.014;2023-07-16T00:19:58;15.50;99.90
56162;DHT22;42045;52.986;6.014;2023-07-16T00:22:24;15.40;99.90
56162;DHT22;42045;52.986;6.014;2023-07-16T00:24:50;15.40;99.90
56162;DHT22;42045;52.986;6.014;2023-07-16T00:27:15;15.40;99.90
56162;DHT22;42045;52.986;6.014;2023-07-16T00:29:41;15.40;99.90
56162;DHT22;42045;52.986;6.014;2023-07-16T00:32:07;15.40;99.90
56162;DHT22;42045;52.986;6.014;2023-07-16T00:34:32;15.40;99.90
56162;DHT22;42045;52.986;6.014;2023-07-16T00:36:58;15.40;99.90
56162;DHT22;42045;52.986;6.014;2023-07-16T00:39:30;15.50;99.90
56162;DHT22;42045;52.986;6.014;2023-07-16T00:41:56;15.50;99.90
56162;DHT22;42045;52.986;6.014;2023-07-16T00:44:22;15.50;99.90
56162;DHT22;42045;52.986;6.014;2023-07-16T00:46:48;15.50;99.90
56162;DHT22;42045;52.986;6.014;2023-07-16T00:49:14;15.60;99.90
56162;DHT22;42045;52.986;6.014;2023-07-16T00:51:39;15.60;99.90
56162;DHT22;42045;52.986;6.014;2023-07-16T00:54:05;15.60;99.90
56162;DHT22;42045;52.986;6.014;2023-07-16T00:56:32;15.60;99.90
56162;DHT22;42045;52.986;6.014;2023-07-16T00:58:57;15.70;99.90
56162;DHT22;42045;52.986;6.014;2023-07-16T01:01:23;15.70;99.90
56162;DHT22;42045;52.986;6.014;2023-07-16T01:03:49;15.70;99.90
56162;DHT22;42045;52.986;6.014;2023-07-16T01:06:35;15.70;99.90
56162;DHT22;42045;52.986;6.014;2023-07-16T01:09:06;15.70;99.90
56162;DHT22;42045;52.986;6.014;2023-07-16T01:11:33;15.60;99.90
56162;DHT22;42045;52.986;6.014;2023-07-16T01:14:01;15.60;99.90
56162;DHT22;42045;52.986;6.014;2023-07-16T01:16:27;15.70;99.90
56162;DHT22;42045;52.986;6.014;2023-07-16T01:18:53;15.60;99.90
56162;DHT22;42045;52.986;6.014;2023-07-16T01:21:20;15.60;99.90
56162;DHT22;42045;52.986;6.014;2023-07-16T01:31:32;15.60;99.90
56162;DHT22;42045;52.986;6.014;2023-07-16T01:33:59;15.60;99.90
56162;DHT22;42045;52.986;6.014;2023-07-16T01:36:26;15.60;99.90
56162;DHT22;42045;52.986;6.014;2023-07-16T01:38:52;15.60;99.90
56162;DHT22;42045;52.986;6.014;2023-07-16T01:41:18;15.60;99.90
56162;DHT22;42045;52.986;6.014;2023-07-16T01:43:44;15.60;99.90
56162;DHT22;42045;52.986;6.014;2023-07-16T01:46:09;15.60;99.90
56162;DHT22;42045;52.986;6.014;2023-07-16T01:48:37;15.60;99.90
56162;DHT22;42045;52.986;6.014;2023-07-16T01:51:03;15.60;99.90
56162;DHT22;42045;52.986;6.014;2023-07-16T01:53:30;15.60;99.90
56162;DHT22;42045;52.986;6.014;2023-07-16T01:55:57;15.50;99.90
56162;DHT22;42045;52.986;6.014;2023-07-16T01:58:22;15.50;99.90
56162;DHT22;42045;52.986;6.014;2023-07-16T02:00:49;15.50;99.90
56162;DHT22;42045;52.986;6.014;2023-07-16T02:03:15;15.50;99.90
56162;DHT22;42045;52.986;6.014;2023-07-16T02:05:41;15.50;99.90
56162;DHT22;42045;52.986;6.014;2023-07-16T02:08:07;15.50;99.90
56162;DHT22;42045;52.986;6.014;2023-07-16T02:10:32;15.40;99.90
56162;DHT22;42045;52.986;6.014;2023-07-16T02:12:58;15.40;99.90
56162;DHT22;42045;52.986;6.014;2023-07-16T02:15:23;15.40;99.90
56162;DHT22;42045;52.986;6.014;2023-07-16T02:17:49;15.40;99.90
56162;DHT22;42045;52.986;6.014;2023-07-16T02:20:15;15.50;99.90
56162;DHT22;42045;52.986;6.014;2023-07-16T02:22:40;15.50;99.90
56162;DHT22;42045;52.986;6.014;2023-07-16T02:25:06;15.50;99.90
56162;DHT22;42045;52.986;6.014;2023-07-16T02:27:32;15.50;99.90
56162;DHT22;42045;52.986;6.014;2023-07-16T02:29:58;15.50;99.90
56162;DHT22;42045;52.986;6.014;2023-07-16T02:32:23;15.60;99.90
56162;DHT22;42045;52.986;6.014;2023-07-16T02:34:49;15.60;99.90
56162;DHT22;42045;52.986;6.014;2023-07-16T02:37:15;15.60;99.90
56162;DHT22;42045;52.986;6.014;2023-07-16T02:39:42;15.60;99.90
56162;DHT22;42045;52.986;6.014;2023-07-16T02:42:08;15.60;99.90
56162;DHT22;42045;52.986;6.014;2023-07-16T02:44:34;15.60;99.90
56162;DHT22;42045;52.986;6.014;2023-07-16T02:47:04;15.60;99.90
56162;DHT22;42045;52.986;6.014;2023-07-16T02:49:29;15.60;99.90
56162;DHT22;42045;52.986;6.014;2023-07-16T02:51:55;15.60;99.90
56162;DHT22;42045;52.986;6.014;2023-07-16T02:54:21;15.60;99.90
56162;DHT22;42045;52.986;6.014;2023-07-16T02:56:47;15.60;99.90
56162;DHT22;42045;52.986;6.014;2023-07-16T02:59:12;15.60;99.90
56162;DHT22;42045;52.986;6.014;2023-07-16T03:01:38;15.60;99.90
56162;DHT22;42045;52.986;6.014;2023-07-16T03:04:03;15.60;99.90
56162;DHT22;42045;52.986;6.014;2023-07-16T03:06:29;15.60;99.90
56162;DHT22;42045;52.986;6.014;2023-07-16T03:08:55;15.50;99.90
56162;DHT22;42045;52.986;6.014;2023-07-16T03:11:20;15.50;99.90
56162;DHT22;42045;52.986;6.014;2023-07-16T03:13:46;15.50;99.90
56162;DHT22;42045;52.986;6.014;2023-07-16T03:16:12;15.50;99.90
56162;DHT22;42045;52.986;6.014;2023-07-16T03:18:37;15.50;99.90
56162;DHT22;42045;52.986;6.014;2023-07-16T03:21:03;15.40;99.90
56162;DHT22;42045;52.986;6.014;2023-07-16T03:23:28;15.40;99.90
56162;DHT22;42045;52.986;6.014;2023-07-16T03:25:54;15.40;99.90
56162;DHT22;42045;52.986;6.014;2023-07-16T03:28:20;15.40;99.90
56162;DHT22;42045;52.986;6.014;2023-07-16T03:30:50;15.40;99.90
56162;DHT22;42045;52.986;6.014;2023-07-16T03:33:16;15.40;99.90
56162;DHT22;42045;52.986;6.014;2023-07-16T03:35:46;15.40;99.90
56162;DHT22;42045;52.986;6.014;2023-07-16T03:38:12;15.30;99.90
56162;DHT22;42045;52.986;6.014;2023-07-16T03:40:38;15.40;99.90
56162;DHT22;42045;52.986;6.014;2023-07-16T03:43:04;15.40;99.90
56162;DHT22;42045;52.986;6.014;2023-07-16T03:45:29;15.40;99.90
56162;DHT22;42045;52.986;6.014;2023-07-16T03:47:55;15.40;99.90
56162;DHT22;42045;52.986;6.014;2023-07-16T03:50:21;15.50;99.90
56162;DHT22;42045;52.986;6.014;2023-07-16T03:52:47;15.50;99.90
56162;DHT22;42045;52.986;6.014;2023-07-16T03:55:13;15.60;99.90
56162;DHT22;42045;52.986;6.014;2023-07-16T03:57:38;15.70;99.90
56162;DHT22;42045;52.986;6.014;2023-07-16T04:00:04;15.70;99.90
56162;DHT22;42045;52.986;6.014;2023-07-16T04:02:36;15.70;99.90
56162;DHT22;42045;52.986;6.014;2023-07-16T04:05:02;15.80;99.90
56162;DHT22;42045;52.986;6.014;2023-07-16T04:07:28;15.80;99.90
56162;DHT22;42045;52.986;6.014;2023-07-16T04:09:54;15.80;99.90
56162;DHT22;42045;52.986;6.014;2023-07-16T04:12:20;16.10;99.90
56162;DHT22;42045;52.986;6.014;2023-07-16T04:14:46;16.30;99.90
56162;DHT22;42045;52.986;6.014;2023-07-16T04:17:13;16.50;99.90
56162;DHT22;42045;52.986;6.014;2023-07-16T04:19:38;16.80;99.90
56162;DHT22;42045;52.986;6.014;2023-07-16T04:22:05;16.90;99.90
56162;DHT22;42045;52.986;6.014;2023-07-16T04:24:31;17.10;99.90
56162;DHT22;42045;52.986;6.014;2023-07-16T04:26:57;17.30;99.90
56162;DHT22;42045;52.986;6.014;2023-07-16T04:29:23;17.50;99.90
56162;DHT22;42045;52.986;6.014;2023-07-16T04:31:49;17.70;99.90
56162;DHT22;42045;52.986;6.014;2023-07-16T04:34:15;17.60;99.90
56162;DHT22;42045;52.986;6.014;2023-07-16T04:36:42;17.90;99.90
56162;DHT22;42045;52.986;6.014;2023-07-16T04:39:08;18.00;99.90
56162;DHT22;42045;52.986;6.014;2023-07-16T04:41:33;18.00;99.90
56162;DHT22;42045;52.986;6.014;2023-07-16T04:43:59;18.30;99.90
56162;DHT22;42045;52.986;6.014;2023-07-16T04:46:25;18.90;99.90
56162;DHT22;42045;52.986;6.014;2023-07-16T04:48:50;18.50;99.90
56162;DHT22;42045;52.986;6.014;2023-07-16T04:51:16;18.20;99.90
56162;DHT22;42045;52.986;6.014;2023-07-16T04:53:42;17.90;99.90
56162;DHT22;42045;52.986;6.014;2023-07-16T04:56:15;17.80;99.90
56162;DHT22;42045;52.986;6.014;2023-07-16T04:58:41;18.40;99.90
56162;DHT22;42045;52.986;6.014;2023-07-16T05:01:11;18.50;99.90
56162;DHT22;42045;52.986;6.014;2023-07-16T05:03:36;18.20;99.90
56162;DHT22;42045;52.986;6.014;2023-07-16T05:06:04;17.90;99.90
56162;DHT22;42045;52.986;6.014;2023-07-16T05:08:30;17.80;99.90
56162;DHT22;42045;52.986;6.014;2023-07-16T05:10:55;18.10;99.90
56162;DHT22;42045;52.986;6.014;2023-07-16T05:13:21;18.10;99.90
56162;DHT22;42045;52.986;6.014;2023-07-16T05:15:47;18.00;99.90
56162;DHT22;42045;52.986;6.014;2023-07-16T05:18:13;17.70;99.90
56162;DHT22;42045;52.986;6.014;2023-07-16T05:20:38;17.60;99.90
56162;DHT22;42045;52.986;6.014;2023-07-16T05:23:04;17.50;99.90
56162;DHT22;42045;52.986;6.014;2023-07-16T05:25:30;17.50;99.90
56162;DHT22;42045;52.986;6.014;2023-07-16T05:27:56;18.20;99.90
56162;DHT22;42045;52.986;6.014;2023-07-16T05:30:22;19.60;99.90
56162;DHT22;42045;52.986;6.014;2023-07-16T05:32:47;20.80;99.90
56162;DHT22;42045;52.986;6.014;2023-07-16T05:35:13;20.80;99.90
56162;DHT22;42045;52.986;6.014;2023-07-16T05:37:39;20.40;99.90
56162;DHT22;42045;52.986;6.014;2023-07-16T05:40:06;19.80;99.90
56162;DHT22;42045;52.986;6.014;2023-07-16T05:42:34;19.30;99.90
56162;DHT22;42045;52.986;6.014;2023-07-16T05:45:00;18.90;99.90
56162;DHT22;42045;52.986;6.014;2023-07-16T05:47:25;18.40;99.90
56162;DHT22;42045;52.986;6.014;2023-07-16T05:49:51;18.30;99.90
56162;DHT22;42045;52.986;6.014;2023-07-16T05:52:16;18.10;99.90
56162;DHT22;42045;52.986;6.014;2023-07-16T05:54:43;17.90;99.90
56162;DHT22;42045;52.986;6.014;2023-07-16T05:57:10;17.90;99.90
56162;DHT22;42045;52.986;6.014;2023-07-16T05:59:36;17.90;99.90
56162;DHT22;42045;52.986;6.014;2023-07-16T06:02:03;17.90;99.90
56162;DHT22;42045;52.986;6.014;2023-07-16T06:04:29;17.90;99.90
56162;DHT22;42045;52.986;6.014;2023-07-16T06:06:55;17.90;99.90
56162;DHT22;42045;52.986;6.014;2023-07-16T06:09:21;18.00;99.90
56162;DHT22;42045;52.986;6.014;2023-07-16T06:11:48;17.90;99.90
56162;DHT22;42045;52.986;6.014;2023-07-16T06:14:14;17.90;99.90
56162;DHT22;42045;52.986;6.014;2023-07-16T06:16:40;18.30;99.90
56162;DHT22;42045;52.986;6.014;2023-07-16T06:19:05;18.60;99.90
56162;DHT22;42045;52.986;6.014;2023-07-16T06:21:31;18.70;99.90
56162;DHT22;42045;52.986;6.014;2023-07-16T06:23:56;19.00;99.90
56162;DHT22;42045;52.986;6.014;2023-07-16T06:26:22;19.00;99.90
56162;DHT22;42045;52.986;6.014;2023-07-16T06:28:48;18.80;99.90
56162;DHT22;42045;52.986;6.014;2023-07-16T06:31:18;18.50;99.90
56162;DHT22;42045;52.986;6.014;2023-07-16T06:33:44;18.30;99.90
56162;DHT22;42045;52.986;6.014;2023-07-16T06:36:12;18.30;99.90
56162;DHT22;42045;52.986;6.014;2023-07-16T06:38:38;18.20;99.90
56162;DHT22;42045;52.986;6.014;2023-07-16T06:41:04;18.10;99.90
56162;DHT22;42045;52.986;6.014;2023-07-16T06:43:29;18.30;99.90
56162;DHT22;42045;52.986;6.014;2023-07-16T06:45:55;18.30;99.90
56162;DHT22;42045;52.986;6.014;2023-07-16T06:48:20;18.70;99.90
56162;DHT22;42045;52.986;6.014;2023-07-16T06:50:46;18.70;99.90
56162;DHT22;42045;52.986;6.014;2023-07-16T06:53:12;18.70;99.90
56162;DHT22;42045;52.986;6.014;2023-07-16T06:55:37;18.70;99.90
56162;DHT22;42045;52.986;6.014;2023-07-16T06:58:03;18.90;99.90
56162;DHT22;42045;52.986;6.014;2023-07-16T07:00:29;18.80;99.90
56162;DHT22;42045;52.986;6.014;2023-07-16T07:02:55;18.50;99.90
56162;DHT22;42045;52.986;6.014;2023-07-16T07:05:21;18.30;99.90
56162;DHT22;42045;52.986;6.014;2023-07-16T07:07:47;18.00;99.90
56162;DHT22;42045;52.986;6.014;2023-07-16T07:10:13;17.80;99.90
56162;DHT22;42045;52.986;6.014;2023-07-16T07:12:39;17.80;99.90
56162;DHT22;42045;52.986;6.014;2023-07-16T07:15:08;18.00;99.90
56162;DHT22;42045;52.986;6.014;2023-07-16T07:17:34;17.90;99.90
56162;DHT22;42045;52.986;6.014;2023-07-16T07:20:01;17.80;99.90
56162;DHT22;42045;52.986;6.014;2023-07-16T07:22:26;17.90;99.90
56162;DHT22;42045;52.986;6.014;2023-07-16T07:24:52;17.90;99.90
56162;DHT22;42045;52.986;6.014;2023-07-16T07:27:18;17.90;99.90
56162;DHT22;42045;52.986;6.014;2023-07-16T07:29:43;17.90;99.90
56162;DHT22;42045;52.986;6.014;2023-07-16T07:32:09;17.90;99.90
56162;DHT22;42045;52.986;6.014;2023-07-16T07:34:35;17.90;99.90
56162;DHT22;42045;52.986;6.014;2023-07-16T07:37:00;18.00;99.90
56162;DHT22;42045;52.986;6.014;2023-07-16T07:39:26;18.10;99.90
56162;DHT22;42045;52.986;6.014;2023-07-16T07:41:52;18.20;99.90
56162;DHT22;42045;52.986;6.014;2023-07-16T07:44:17;18.30;99.90
56162;DHT22;42045;52.986;6.014;2023-07-16T07:46:43;18.40;99.90
56162;DHT22;42045;52.986;6.014;2023-07-16T07:49:09;18.40;99.90
56162;DHT22;42045;52.986;6.014;2023-07-16T07:51:34;18.40;99.90
56162;DHT22;42045;52.986;6.014;2023-07-16T07:54:00;18.10;99.90
56162;DHT22;42045;52.986;6.014;2023-07-16T07:56:25;17.90;99.90
56162;DHT22;42045;52.986;6.014;2023-07-16T07:58:51;17.70;99.90
56162;DHT22;42045;52.986;6.014;2023-07-16T08:01:17;17.70;99.90
56162;DHT22;42045;52.986;6.014;2023-07-16T08:03:42;17.50;99.90
56162;DHT22;42045;52.986;6.014;2023-07-16T08:06:08;17.50;99.90
56162;DHT22;42045;52.986;6.014;2023-07-16T08:08:34;17.40;99.90
56162;DHT22;42045;52.986;6.014;2023-07-16T08:10:59;17.40;99.90
56162;DHT22;42045;52.986;6.014;2023-07-16T08:13:25;17.40;99.90
56162;DHT22;42045;52.986;6.014;2023-07-16T08:15:50;17.40;99.90
56162;DHT22;42045;52.986;6.014;2023-07-16T08:18:16;17.80;99.90
56162;DHT22;42045;52.986;6.014;2023-07-16T08:20:42;18.40;99.90
56162;DHT22;42045;52.986;6.014;2023-07-16T08:23:07;18.90;99.90
56162;DHT22;42045;52.986;6.014;2023-07-16T08:25:33;19.10;99.90
56162;DHT22;42045;52.986;6.014;2023-07-16T08:28:02;19.30;99.90
56162;DHT22;42045;52.986;6.014;2023-07-16T08:30:28;19.60;99.90
56162;DHT22;42045;52.986;6.014;2023-07-16T08:32:53;19.60;99.90
56162;DHT22;42045;52.986;6.014;2023-07-16T08:35:19;19.80;99.90
56162;DHT22;42045;52.986;6.014;2023-07-16T08:37:45;19.90;99.90
56162;DHT22;42045;52.986;6.014;2023-07-16T08:40:12;19.80;99.90
56162;DHT22;42045;52.986;6.014;2023-07-16T08:42:39;19.80;99.90
56162;DHT22;42045;52.986;6.014;2023-07-16T08:45:10;19.90;99.90
56162;DHT22;42045;52.986;6.014;2023-07-16T08:47:35;20.00;99.90
56162;DHT22;42045;52.986;6.014;2023-07-16T08:50:02;19.90;99.90
56162;DHT22;42045;52.986;6.014;2023-07-16T08:52:28;19.80;99.90
56162;DHT22;42045;52.986;6.014;2023-07-16T08:54:54;19.60;99.90
56162;DHT22;42045;52.986;6.014;2023-07-16T08:57:21;19.40;99.90
56162;DHT22;42045;52.986;6.014;2023-07-16T08:59:51;19.40;99.90
56162;DHT22;42045;52.986;6.014;2023-07-16T09:02:20;19.40;99.90
56162;DHT22;42045;52.986;6.014;2023-07-16T09:04:50;19.50;99.90
56162;DHT22;42045;52.986;6.014;2023-07-16T09:07:20;19.60;99.90
56162;DHT22;42045;52.986;6.014;2023-07-16T09:09:55;19.80;99.90
56162;DHT22;42045;52.986;6.014;2023-07-16T09:12:24;19.80;99.90
56162;DHT22;42045;52.986;6.014;2023-07-16T09:14:50;19.80;99.90
56162;DHT22;42045;52.986;6.014;2023-07-16T09:17:23;20.10;99.90
56162;DHT22;42045;52.986;6.014;2023-07-16T09:19:52;20.10;99.90
56162;DHT22;42045;52.986;6.014;2023-07-16T09:22:18;20.00;99.90
56162;DHT22;42045;52.986;6.014;2023-07-16T09:24:46;19.90;99.90
56162;DHT22;42045;52.986;6.014;2023-07-16T09:27:12;20.20;99.90
56162;DHT22;42045;52.986;6.014;2023-07-16T09:29:38;20.60;99.90
56162;DHT22;42045;52.986;6.014;2023-07-16T09:32:04;21.10;99.90
56162;DHT22;42045;52.986;6.014;2023-07-16T09:34:31;21.10;99.90
56162;DHT22;42045;52.986;6.014;2023-07-16T09:36:58;21.10;99.90
56162;DHT22;42045;52.986;6.014;2023-07-16T09:39:25;21.20;99.90
56162;DHT22;42045;52.986;6.014;2023-07-16T09:41:51;21.20;99.90
56162;DHT22;42045;52.986;6.014;2023-07-16T09:44:18;21.30;99.90
56162;DHT22;42045;52.986;6.014;2023-07-16T09:46:44;21.30;99.90
56162;DHT22;42045;52.986;6.014;2023-07-16T09:49:11;21.10;99.90
56162;DHT22;42045;52.986;6.014;2023-07-16T09:51:37;20.80;99.90
56162;DHT22;42045;52.986;6.014;2023-07-16T09:54:04;20.80;99.90
56162;DHT22;42045;52.986;6.014;2023-07-16T09:56:40;21.10;99.90
56162;DHT22;42045;52.986;6.014;2023-07-16T09:59:20;21.30;99.90
56162;DHT22;42045;52.986;6.014;2023-07-16T10:01:47;21.20;99.90
56162;DHT22;42045;52.986;6.014;2023-07-16T10:04:18;20.70;99.90
56162;DHT22;42045;52.986;6.014;2023-07-16T10:09:52;20.00;99.90
56162;DHT22;42045;52.986;6.014;2023-07-16T10:12:20;19.90;99.90
56162;DHT22;42045;52.986;6.014;2023-07-16T10:14:48;19.80;99.90
56162;DHT22;42045;52.986;6.014;2023-07-16T10:20:07;20.50;99.90
56162;DHT22;42045;52.986;6.014;2023-07-16T10:22:35;20.40;99.90
56162;DHT22;42045;52.986;6.014;2023-07-16T10:25:02;20.20;99.90
56162;DHT22;42045;52.986;6.014;2023-07-16T10:27:33;20.10;99.90
56162;DHT22;42045;52.986;6.014;2023-07-16T10:30:00;20.30;99.90
56162;DHT22;42045;52.986;6.014;2023-07-16T10:32:29;20.70;99.90
56162;DHT22;42045;52.986;6.014;2023-07-16T10:34:56;20.90;99.90
56162;DHT22;42045;52.986;6.014;2023-07-16T10:37:22;20.90;99.90
56162;DHT22;42045;52.986;6.014;2023-07-16T10:39:49;21.20;99.90
56162;DHT22;42045;52.986;6.014;2023-07-16T10:42:16;21.50;99.90
56162;DHT22;42045;52.986;6.014;2023-07-16T10:44:42;21.60;99.90
56162;DHT22;42045;52.986;6.014;2023-07-16T10:47:09;21.50;99.90
56162;DHT22;42045;52.986;6.014;2023-07-16T10:49:35;21.70;99.90
56162;DHT22;42045;52.986;6.014;2023-07-16T10:52:01;21.80;99.90
56162;DHT22;42045;52.986;6.014;2023-07-16T10:54:27;21.50;99.90
56162;DHT22;42045;52.986;6.014;2023-07-16T10:56:53;21.10;99.90
56162;DHT22;42045;52.986;6.014;2023-07-16T10:59:19;20.80;99.90
56162;DHT22;42045;52.986;6.014;2023-07-16T11:01:45;20.70;99.90
56162;DHT22;42045;52.986;6.014;2023-07-16T11:04:11;20.40;99.90
56162;DHT22;42045;52.986;6.014;2023-07-16T11:06:37;20.70;99.90
56162;DHT22;42045;52.986;6.014;2023-07-16T11:09:09;20.90;99.90
56162;DHT22;42045;52.986;6.014;2023-07-16T11:11:35;20.90;99.90
56162;DHT22;42045;52.986;6.014;2023-07-16T11:14:05;21.00;99.90
56162;DHT22;42045;52.986;6.014;2023-07-16T11:16:35;21.00;99.90
56162;DHT22;42045;52.986;6.014;2023-07-16T11:19:03;20.60;99.90
56162;DHT22;42045;52.986;6.014;2023-07-16T11:21:29;20.50;99.90
56162;DHT22;42045;52.986;6.014;2023-07-16T11:23:55;20.20;99.90
56162;DHT22;42045;52.986;6.014;2023-07-16T11:26:21;20.10;99.90
56162;DHT22;42045;52.986;6.014;2023-07-16T11:28:50;20.20;99.90
56162;DHT22;42045;52.986;6.014;2023-07-16T11:31:17;20.20;99.90
56162;DHT22;42045;52.986;6.014;2023-07-16T11:33:46;20.10;99.90
56162;DHT22;42045;52.986;6.014;2023-07-16T11:36:12;20.00;99.90
56162;DHT22;42045;52.986;6.014;2023-07-16T11:38:39;19.90;99.90
56162;DHT22;42045;52.986;6.014;2023-07-16T11:41:05;20.00;99.90
56162;DHT22;42045;52.986;6.014;2023-07-16T11:43:37;20.10;99.90
56162;DHT22;42045;52.986;6.014;2023-07-16T11:46:15;20.10;99.90
56162;DHT22;42045;52.986;6.014;2023-07-16T11:48:43;20.30;99.90
56162;DHT22;42045;52.986;6.014;2023-07-16T11:51:09;20.30;99.90
56162;DHT22;42045;52.986;6.014;2023-07-16T11:53:35;20.40;99.90
56162;DHT22;42045;52.986;6.014;2023-07-16T11:56:00;20.40;99.90
56162;DHT22;42045;52.986;6.014;2023-07-16T11:58:26;20.50;99.90
56162;DHT22;42045;52.986;6.014;2023-07-16T12:00:51;20.60;99.90
56162;DHT22;42045;52.986;6.014;2023-07-16T12:03:17;20.70;99.90
56162;DHT22;42045;52.986;6.014;2023-07-16T12:05:43;20.80;99.90
56162;DHT22;42045;52.986;6.014;2023-07-16T12:08:09;20.90;99.90
56162;DHT22;42045;52.986;6.014;2023-07-16T12:10:40;21.10;99.90
56162;DHT22;42045;52.986;6.014;2023-07-16T12:13:06;21.30;99.90
56162;DHT22;42045;52.986;6.014;2023-07-16T12:15:31;21.40;99.90
56162;DHT22;42045;52.986;6.014;2023-07-16T12:17:58;21.40;99.90
56162;DHT22;42045;52.986;6.014;2023-07-16T12:20:24;21.80;99.90
56162;DHT22;42045;52.986;6.014;2023-07-16T12:22:49;21.80;99.90
56162;DHT22;42045;52.986;6.014;2023-07-16T12:25:16;21.60;99.90
56162;DHT22;42045;52.986;6.014;2023-07-16T12:27:44;21.50;99.90
56162;DHT22;42045;52.986;6.014;2023-07-16T12:30:09;21.20;99.90
56162;DHT22;42045;52.986;6.014;2023-07-16T12:32:36;20.90;99.90
56162;DHT22;42045;52.986;6.014;2023-07-16T12:35:02;20.90;99.90
56162;DHT22;42045;52.986;6.014;2023-07-16T12:37:29;20.80;99.90
56162;DHT22;42045;52.986;6.014;2023-07-16T12:39:55;20.70;99.90
56162;DHT22;42045;52.986;6.014;2023-07-16T12:42:21;20.50;99.90
56162;DHT22;42045;52.986;6.014;2023-07-16T12:44:46;20.50;99.90
56162;DHT22;42045;52.986;6.014;2023-07-16T12:47:12;20.50;99.90
56162;DHT22;42045;52.986;6.014;2023-07-16T12:49:38;20.70;99.90
56162;DHT22;42045;52.986;6.014;2023-07-16T12:52:04;20.90;99.90
56162;DHT22;42045;52.986;6.014;2023-07-16T12:54:29;21.10;99.90
56162;DHT22;42045;52.986;6.014;2023-07-16T12:56:55;21.20;99.90
56162;DHT22;42045;52.986;6.014;2023-07-16T12:59:22;21.50;99.90
56162;DHT22;42045;52.986;6.014;2023-07-16T13:01:50;21.70;99.90
56162;DHT22;42045;52.986;6.014;2023-07-16T13:04:15;22.00;99.90
56162;DHT22;42045;52.986;6.014;2023-07-16T13:06:41;22.20;99.90
56162;DHT22;42045;52.986;6.014;2023-07-16T13:09:07;22.30;99.90
56162;DHT22;42045;52.986;6.014;2023-07-16T13:11:33;22.40;99.90
56162;DHT22;42045;52.986;6.014;2023-07-16T13:13:59;22.20;99.90
56162;DHT22;42045;52.986;6.014;2023-07-16T13:16:25;22.10;99.90
56162;DHT22;42045;52.986;6.014;2023-07-16T13:18:50;22.00;99.90
56162;DHT22;42045;52.986;6.014;2023-07-16T13:21:16;22.00;99.90
56162;DHT22;42045;52.986;6.014;2023-07-16T13:23:41;22.30;99.90
56162;DHT22;42045;52.986;6.014;2023-07-16T13:26:07;22.60;99.90
56162;DHT22;42045;52.986;6.014;2023-07-16T13:28:33;22.70;99.90
56162;DHT22;42045;52.986;6.014;2023-07-16T13:30:58;22.60;99.90
56162;DHT22;42045;52.986;6.014;2023-07-16T13:33:24;22.70;99.90
56162;DHT22;42045;52.986;6.014;2023-07-16T13:35:50;22.70;99.90
56162;DHT22;42045;52.986;6.014;2023-07-16T13:38:15;22.80;99.90
56162;DHT22;42045;52.986;6.014;2023-07-16T13:40:41;22.80;99.90
56162;DHT22;42045;52.986;6.014;2023-07-16T13:43:07;22.70;99.90
56162;DHT22;42045;52.986;6.014;2023-07-16T13:45:33;22.60;99.90
56162;DHT22;42045;52.986;6.014;2023-07-16T13:47:59;22.50;99.90
56162;DHT22;42045;52.986;6.014;2023-07-16T13:50:25;22.50;99.90
56162;DHT22;42045;52.986;6.014;2023-07-16T13:52:50;22.60;99.90
56162;DHT22;42045;52.986;6.014;2023-07-16T13:55:16;22.60;99.90
56162;DHT22;42045;52.986;6.014;2023-07-16T13:57:42;22.50;99.90
56162;DHT22;42045;52.986;6.014;2023-07-16T14:00:09;22.50;99.90
56162;DHT22;42045;52.986;6.014;2023-07-16T14:02:36;22.30;99.60
56162;DHT22;42045;52.986;6.014;2023-07-16T14:05:01;22.30;99.80
56162;DHT22;42045;52.986;6.014;2023-07-16T14:07:27;22.30;99.90
56162;DHT22;42045;52.986;6.014;2023-07-16T14:09:53;22.20;99.90
56162;DHT22;42045;52.986;6.014;2023-07-16T14:12:19;22.20;99.90
56162;DHT22;42045;52.986;6.014;2023-07-16T14:14:45;22.20;99.80
56162;DHT22;42045;52.986;6.014;2023-07-16T14:17:10;22.30;99.90
56162;DHT22;42045;52.986;6.014;2023-07-16T14:19:36;22.10;98.70
56162;DHT22;42045;52.986;6.014;2023-07-16T14:22:02;22.10;99.30
56162;DHT22;42045;52.986;6.014;2023-07-16T14:24:28;22.20;99.80
56162;DHT22;42045;52.986;6.014;2023-07-16T14:26:53;22.10;98.80
56162;DHT22;42045;52.986;6.014;2023-07-16T14:29:19;21.90;99.80
56162;DHT22;42045;52.986;6.014;2023-07-16T14:31:44;21.70;99.60
56162;DHT22;42045;52.986;6.014;2023-07-16T14:34:10;21.70;99.30
56162;DHT22;42045;52.986;6.014;2023-07-16T14:36:36;21.90;99.90
56162;DHT22;42045;52.986;6.014;2023-07-16T14:39:01;22.00;99.90
56162;DHT22;42045;52.986;6.014;2023-07-16T14:41:27;22.00;99.90
56162;DHT22;42045;52.986;6.014;2023-07-16T14:43:53;22.00;99.30
56162;DHT22;42045;52.986;6.014;2023-07-16T14:46:18;21.90;98.90
56162;DHT22;42045;52.986;6.014;2023-07-16T14:48:44;21.90;99.90
56162;DHT22;42045;52.986;6.014;2023-07-16T14:51:11;22.00;99.90
56162;DHT22;42045;52.986;6.014;2023-07-16T14:53:38;21.90;99.90
56162;DHT22;42045;52.986;6.014;2023-07-16T14:56:04;22.10;99.90
56162;DHT22;42045;52.986;6.014;2023-07-16T14:58:32;22.10;99.70
56162;DHT22;42045;52.986;6.014;2023-07-16T15:01:00;22.10;99.40
56162;DHT22;42045;52.986;6.014;2023-07-16T15:03:29;22.00;99.50
56162;DHT22;42045;52.986;6.014;2023-07-16T15:05:57;21.90;99.90
56162;DHT22;42045;52.986;6.014;2023-07-16T15:08:24;21.80;99.90
56162;DHT22;42045;52.986;6.014;2023-07-16T15:10:50;21.90;99.90
56162;DHT22;42045;52.986;6.014;2023-07-16T15:13:17;21.80;99.90
56162;DHT22;42045;52.986;6.014;2023-07-16T15:15:48;21.80;99.90
56162;DHT22;42045;52.986;6.014;2023-07-16T15:18:14;21.70;99.90
56162;DHT22;42045;52.986;6.014;2023-07-16T15:20:40;21.70;99.90
56162;DHT22;42045;52.986;6.014;2023-07-16T15:23:06;21.70;99.90
56162;DHT22;42045;52.986;6.014;2023-07-16T15:25:32;21.80;99.90
56162;DHT22;42045;52.986;6.014;2023-07-16T15:27:57;21.60;99.90
56162;DHT22;42045;52.986;6.014;2023-07-16T15:30:25;21.70;99.90
56162;DHT22;42045;52.986;6.014;2023-07-16T15:32:51;21.80;99.90
56162;DHT22;42045;52.986;6.014;2023-07-16T15:35:17;21.50;98.90
56162;DHT22;42045;52.986;6.014;2023-07-16T15:37:43;21.60;99.50